createdAt,value
2019-04-28T00:00:34.371Z,3.57
2019-04-28T00:03:04.098Z,4.83
2019-04-28T00:05:33.286Z,6.83
2019-04-28T00:08:01.159Z,6.13
2019-04-28T00:10:31.570Z,8.10
2019-04-28T00:13:00.916Z,7.87
2019-04-28T00:15:28.213Z,7.73
2019-04-28T00:17:55.606Z,4.20
2019-04-28T00:20:34.013Z,9.20
2019-04-28T00:23:11.863Z,6.20
2019-04-28T00:25:43.539Z,7.47
2019-04-28T00:28:11.576Z,6.27
2019-04-28T00:30:39.377Z,3.67
2019-04-28T00:33:07.837Z,5.60
2019-04-28T00:35:36.372Z,6.60
2019-04-28T00:38:04.032Z,8.27
2019-04-28T00:40:31.719Z,9.00
2019-04-28T00:43:00.819Z,8.80
2019-04-28T00:45:28.293Z,6.50
2019-04-28T00:47:56.638Z,7.97
2019-04-28T00:50:24.296Z,8.33
2019-04-28T00:52:51.886Z,8.63
2019-04-28T00:55:20.946Z,5.90
2019-04-28T00:57:50.829Z,10.13
2019-04-28T01:00:21.298Z,8.00
2019-04-28T01:02:50.874Z,10.60
2019-04-28T01:05:18.819Z,8.43
2019-04-28T01:07:46.109Z,6.23
2019-04-28T01:10:13.750Z,8.83
2019-04-28T01:12:41.581Z,9.50
2019-04-28T01:15:34.668Z,6.57
2019-04-28T01:18:30.240Z,9.23
2019-04-28T01:20:59.668Z,8.60
2019-04-28T01:23:27.520Z,7.33
2019-04-28T01:25:56.159Z,9.33
2019-04-28T01:28:23.764Z,6.47
2019-04-28T01:31:23.270Z,8.10
2019-04-28T01:34:11.350Z,9.53
2019-04-28T01:36:39.997Z,5.40
2019-04-28T01:39:11.777Z,7.27
2019-04-28T01:41:40.241Z,6.63
2019-04-28T01:44:10.238Z,6.83
2019-04-28T01:46:39.753Z,5.90
2019-04-28T01:49:07.317Z,8.30
2019-04-28T01:51:34.987Z,5.37
2019-04-28T01:54:02.481Z,8.80
2019-04-28T01:56:30.471Z,5.40
2019-04-28T01:58:58.091Z,5.33
2019-04-28T02:01:25.366Z,4.43
2019-04-28T02:03:52.938Z,4.70
2019-04-28T02:06:23.045Z,2.90
2019-04-28T02:08:51.661Z,7.30
2019-04-28T02:11:19.829Z,6.93
2019-04-28T02:13:47.424Z,7.07
2019-04-28T02:16:19.460Z,7.00
2019-04-28T02:18:49.694Z,6.90
2019-04-28T02:21:42.727Z,4.67
2019-04-28T02:24:30.696Z,4.33
2019-04-28T02:27:00.838Z,4.40
2019-04-28T02:29:29.869Z,4.87
2019-04-28T02:31:57.306Z,4.77
2019-04-28T02:34:24.745Z,4.00
2019-04-28T02:36:53.900Z,6.23
2019-04-28T02:39:21.600Z,3.93
2019-04-28T02:41:51.192Z,4.27
2019-04-28T02:44:23.067Z,4.60
2019-04-28T02:46:54.449Z,7.03
2019-04-28T02:49:32.263Z,2.93
2019-04-28T02:52:22.510Z,6.70
2019-04-28T02:54:50.855Z,8.47
2019-04-28T02:57:20.799Z,5.67
2019-04-28T02:59:50.862Z,8.03
2019-04-28T03:02:20.438Z,7.40
2019-04-28T03:04:51.334Z,3.97
2019-04-28T03:07:21.177Z,5.43
2019-04-28T03:09:48.031Z,4.63
2019-04-28T03:12:15.691Z,8.07
2019-04-28T03:14:43.977Z,5.83
2019-04-28T03:17:11.636Z,7.70
2019-04-28T03:19:41.566Z,6.13
2019-04-28T03:22:11.628Z,5.60
2019-04-28T03:24:41.285Z,6.93
2019-04-28T03:27:20.509Z,4.90
2019-04-28T03:29:53.199Z,5.57
2019-04-28T03:32:45.020Z,6.63
2019-04-28T03:35:04.115Z,8.23
2019-04-28T03:37:32.848Z,8.10
2019-04-28T03:40:01.245Z,4.27
2019-04-28T03:42:31.163Z,9.43
2019-04-28T03:45:01.536Z,8.57
2019-04-28T03:47:31.377Z,7.07
2019-04-28T03:50:00.089Z,6.07
2019-04-28T03:52:27.573Z,7.17
2019-04-28T03:54:55.239Z,5.80
2019-04-28T03:57:22.875Z,6.10
2019-04-28T03:59:52.387Z,6.87
2019-04-28T04:02:22.937Z,5.67
2019-04-28T04:04:52.357Z,5.00
2019-04-28T04:07:21.148Z,12.17
2019-04-28T04:10:00.915Z,10.47
2019-04-28T04:12:51.203Z,7.63
2019-04-28T04:15:41.297Z,8.87
2019-04-28T04:18:12.870Z,8.63
2019-04-28T04:20:46.205Z,12.13
2019-04-28T04:23:13.622Z,11.70
2019-04-28T04:25:42.925Z,9.50
2019-04-28T04:28:10.744Z,9.70
2019-04-28T04:30:42.787Z,11.97
2019-04-28T04:33:11.267Z,10.30
2019-04-28T04:35:44.403Z,12.10
2019-04-28T04:38:12.269Z,11.90
2019-04-28T04:40:41.299Z,9.23
2019-04-28T04:43:11.205Z,8.27
2019-04-28T04:45:40.516Z,9.33
2019-04-28T04:48:07.348Z,11.57
2019-04-28T04:50:35.813Z,7.10
2019-04-28T04:53:03.193Z,8.63
2019-04-28T04:55:30.865Z,8.80
2019-04-28T04:58:00.599Z,8.03
2019-04-28T05:00:51.040Z,6.47
2019-04-28T05:03:22.344Z,7.67
2019-04-28T05:05:50.229Z,10.43
2019-04-28T05:08:17.892Z,9.90
2019-04-28T05:10:45.980Z,13.20
2019-04-28T05:13:13.570Z,9.80
2019-04-28T05:15:40.939Z,8.40
2019-04-28T05:18:10.855Z,9.07
2019-04-28T05:20:40.204Z,10.37
2019-04-28T05:23:14.215Z,9.23
2019-04-28T05:25:54.533Z,12.23
2019-04-28T05:28:22.187Z,8.40
2019-04-28T05:30:50.256Z,9.50
2019-04-28T05:33:33.390Z,10.47
2019-04-28T05:35:59.222Z,10.57
2019-04-28T05:38:33.549Z,10.57
2019-04-28T05:41:02.708Z,9.20
2019-04-28T05:43:30.202Z,8.37
2019-04-28T05:45:58.021Z,9.40
2019-04-28T05:48:55.085Z,8.97
2019-04-28T05:51:23.896Z,7.83
2019-04-28T05:53:59.507Z,8.43
2019-04-28T05:56:45.011Z,8.30
2019-04-28T05:59:21.308Z,11.47
2019-04-28T06:02:05.934Z,13.70
2019-04-28T06:04:34.337Z,12.33
2019-04-28T06:07:20.228Z,12.63
2019-04-28T06:09:50.162Z,10.23
2019-04-28T06:12:21.884Z,11.77
2019-04-28T06:14:53.976Z,14.13
2019-04-28T06:17:21.827Z,13.80
2019-04-28T06:19:50.395Z,15.07
2019-04-28T06:22:18.469Z,14.40
2019-04-28T06:24:46.190Z,12.03
2019-04-28T06:27:19.353Z,16.90
2019-04-28T06:29:47.085Z,13.63
2019-04-28T06:32:21.454Z,15.60
2019-04-28T06:34:52.070Z,14.80
2019-04-28T06:37:19.466Z,14.13
2019-04-28T06:39:47.401Z,15.07
2019-04-28T06:42:14.973Z,13.40
2019-04-28T06:44:44.258Z,14.17
2019-04-28T06:47:11.711Z,13.87
2019-04-28T06:49:39.747Z,13.87
2019-04-28T06:52:07.845Z,13.40
2019-04-28T06:54:53.013Z,13.97
2019-04-28T06:57:20.438Z,14.73
2019-04-28T06:59:50.645Z,16.53
2019-04-28T07:02:20.651Z,15.20
2019-04-28T07:05:00.917Z,14.20
2019-04-28T07:07:21.289Z,15.57
2019-04-28T07:09:49.032Z,15.37
2019-04-28T07:12:16.321Z,15.13
2019-04-28T07:14:43.682Z,17.33
2019-04-28T07:17:13.194Z,14.40
2019-04-28T07:19:53.635Z,15.33
2019-04-28T07:22:26.734Z,12.13
2019-04-28T07:24:54.401Z,9.57
2019-04-28T07:27:21.910Z,10.17
2019-04-28T07:29:52.658Z,14.13
2019-04-28T07:32:21.785Z,11.70
2019-04-28T07:34:55.581Z,10.50
2019-04-28T07:37:23.561Z,10.93
2019-04-28T07:39:51.621Z,10.73
2019-04-28T07:42:19.796Z,11.43
2019-04-28T07:44:48.179Z,11.00
2019-04-28T07:47:15.716Z,8.43
2019-04-28T07:49:43.174Z,8.30
2019-04-28T07:52:38.722Z,10.00
2019-04-28T07:55:06.016Z,7.90
2019-04-28T07:57:34.355Z,10.67
2019-04-28T08:00:26.127Z,7.80
2019-04-28T08:02:56.386Z,8.53
2019-04-28T08:05:26.704Z,6.83
2019-04-28T08:07:55.625Z,7.30
2019-04-28T08:10:23.019Z,10.63
2019-04-28T08:12:54.815Z,9.83
2019-04-28T08:15:27.794Z,6.53
2019-04-28T08:18:00.564Z,8.67
2019-04-28T08:20:33.191Z,7.60
2019-04-28T08:23:03.815Z,5.23
2019-04-28T08:25:33.647Z,6.10
2019-04-28T08:28:02.073Z,5.60
2019-04-28T08:30:29.295Z,6.43
2019-04-28T08:33:27.603Z,6.93
2019-04-28T08:35:54.965Z,4.97
2019-04-28T08:38:32.536Z,5.83
2019-04-28T08:41:04.038Z,4.57
2019-04-28T08:43:31.095Z,6.00
2019-04-28T08:45:58.472Z,4.53
2019-04-28T08:48:25.932Z,6.93
2019-04-28T08:50:54.879Z,6.93
2019-04-28T08:53:22.487Z,4.40
2019-04-28T08:55:50.114Z,4.33
2019-04-28T08:58:17.636Z,8.70
2019-04-28T09:00:46.239Z,6.67
2019-04-28T09:03:14.698Z,5.30
2019-04-28T09:05:42.698Z,7.10
2019-04-28T09:08:10.125Z,6.40
2019-04-28T09:10:50.850Z,7.23
2019-04-28T09:13:18.264Z,5.40
2019-04-28T09:15:47.259Z,3.73
2019-04-28T09:18:14.961Z,5.37
2019-04-28T09:20:42.807Z,4.90
2019-04-28T09:23:33.858Z,6.30
2019-04-28T09:26:03.160Z,4.33
2019-04-28T09:28:30.312Z,7.57
2019-04-28T09:30:58.412Z,5.33
2019-04-28T09:33:25.631Z,7.30
2019-04-28T09:35:52.672Z,8.70
2019-04-28T09:38:19.696Z,6.83
2019-04-28T09:40:46.937Z,6.80
2019-04-28T09:43:33.675Z,7.67
2019-04-28T09:46:12.884Z,5.10
2019-04-28T09:48:50.911Z,9.43
2019-04-28T09:51:18.880Z,7.27
2019-04-28T09:53:46.697Z,8.10
2019-04-28T09:56:14.188Z,6.50
2019-04-28T09:58:41.502Z,5.20
2019-04-28T10:01:10.674Z,5.50
2019-04-28T10:03:37.718Z,6.50
2019-04-28T10:06:38.918Z,7.00
2019-04-28T10:09:11.297Z,7.17
2019-04-28T10:11:41.423Z,7.47
2019-04-28T10:14:14.485Z,6.37
2019-04-28T10:16:42.601Z,7.43
2019-04-28T10:19:11.542Z,8.03
2019-04-28T10:21:46.389Z,6.60
2019-04-28T10:24:13.348Z,6.63
2019-04-28T10:26:42.616Z,5.13
2019-04-28T10:29:09.977Z,10.70
2019-04-28T10:31:38.893Z,6.20
2019-04-28T10:34:07.998Z,5.57
2019-04-28T10:36:39.025Z,6.37
2019-04-28T10:39:33.581Z,7.30
2019-04-28T10:42:03.252Z,5.57
2019-04-28T10:44:34.480Z,6.30
2019-04-28T10:47:09.613Z,8.93
2019-04-28T10:49:36.938Z,7.27
2019-04-28T10:52:03.913Z,7.37
2019-04-28T10:54:32.000Z,8.90
2019-04-28T10:56:58.995Z,9.80
2019-04-28T10:59:48.711Z,6.43
2019-04-28T11:02:16.895Z,7.20
2019-04-28T11:05:09.057Z,9.27
2019-04-28T11:07:38.500Z,8.80
2019-04-28T11:10:11.996Z,6.63
2019-04-28T11:12:49.463Z,6.57
2019-04-28T11:15:22.786Z,9.77
2019-04-28T11:17:50.004Z,7.53
2019-04-28T11:20:20.218Z,7.83
2019-04-28T11:22:48.064Z,7.87
2019-04-28T11:25:21.538Z,7.93
2019-04-28T11:27:46.790Z,7.50
2019-04-28T11:30:15.276Z,7.73
2019-04-28T11:33:24.978Z,7.30
2019-04-28T11:35:52.480Z,7.73
2019-04-28T11:38:21.697Z,6.97
2019-04-28T11:41:02.351Z,7.70
2019-04-28T11:43:30.546Z,10.00
2019-04-28T11:46:14.967Z,7.70
2019-04-28T11:49:00.097Z,8.77
2019-04-28T11:51:34.890Z,5.83
2019-04-28T11:54:09.140Z,7.03
2019-04-28T11:56:49.141Z,8.97
2019-04-28T11:59:19.018Z,7.57
2019-04-28T12:01:47.322Z,8.77
2019-04-28T12:04:31.966Z,6.97
2019-04-28T12:07:09.716Z,7.17
2019-04-28T12:10:04.737Z,6.40
2019-04-28T12:12:41.988Z,7.67
2019-04-28T12:15:49.918Z,7.27
2019-04-28T12:18:41.200Z,7.10
2019-04-28T12:21:08.210Z,6.40
2019-04-28T12:23:35.260Z,6.03
2019-04-28T12:26:22.352Z,7.93
2019-04-28T12:29:02.663Z,8.80
2019-04-28T12:31:37.674Z,6.90
2019-04-28T12:34:06.364Z,7.17
2019-04-28T12:36:35.936Z,6.87
2019-04-28T12:39:05.440Z,6.70
2019-04-28T12:41:40.586Z,6.47
2019-04-28T12:44:09.724Z,7.23
2019-04-28T12:46:38.855Z,5.77
2019-04-28T12:49:14.279Z,7.43
2019-04-28T12:52:04.595Z,7.00
2019-04-28T12:54:36.443Z,5.63
2019-04-28T12:57:05.521Z,6.63
2019-04-28T12:59:53.168Z,7.50
2019-04-28T13:02:30.318Z,6.70
2019-04-28T13:05:03.480Z,5.87
2019-04-28T13:07:38.022Z,6.50
2019-04-28T13:10:13.548Z,7.13
2019-04-28T13:12:40.832Z,9.67
2019-04-28T13:15:10.198Z,7.13
2019-04-28T13:17:48.830Z,7.53
2019-04-28T13:20:22.140Z,5.43
2019-04-28T13:22:55.548Z,7.10
2019-04-28T13:25:25.790Z,5.73
2019-04-28T13:28:01.322Z,5.60
2019-04-28T13:30:53.485Z,5.90
2019-04-28T13:33:22.913Z,5.50
2019-04-28T13:35:53.041Z,4.87
2019-04-28T13:38:26.557Z,5.37
2019-04-28T13:40:53.853Z,6.00
2019-04-28T13:43:28.671Z,6.07
2019-04-28T13:45:56.192Z,6.37
2019-04-28T13:48:33.391Z,6.47
2019-04-28T13:51:04.532Z,6.70
2019-04-28T13:53:59.147Z,5.90
2019-04-28T13:56:37.055Z,6.63
2019-04-28T13:59:18.225Z,7.37
2019-04-28T14:01:59.493Z,6.37
2019-04-28T14:04:59.833Z,6.87
2019-04-28T14:07:31.439Z,6.07
2019-04-28T14:10:08.525Z,5.97
2019-04-28T14:12:41.373Z,6.03
2019-04-28T14:15:15.618Z,5.23
2019-04-28T14:17:44.765Z,4.77
2019-04-28T14:20:14.335Z,4.87
2019-04-28T14:22:47.931Z,8.37
2019-04-28T14:25:22.967Z,8.03
2019-04-28T14:27:50.405Z,8.23
2019-04-28T14:30:19.630Z,6.67
2019-04-28T14:32:58.303Z,6.43
2019-04-28T14:35:26.131Z,7.43
2019-04-28T14:38:01.970Z,8.17
2019-04-28T14:40:42.569Z,6.63
2019-04-28T14:43:13.577Z,7.10
2019-04-28T14:45:45.163Z,5.47
2019-04-28T14:48:13.207Z,6.03
2019-04-28T14:50:43.909Z,7.43
2019-04-28T14:53:14.409Z,6.87
2019-04-28T14:55:41.947Z,12.23
2019-04-28T14:58:09.306Z,7.67
2019-04-28T15:00:40.738Z,6.97
2019-04-28T15:03:11.130Z,7.80
2019-04-28T15:05:56.597Z,7.00
2019-04-28T15:08:42.085Z,7.97
2019-04-28T15:11:26.022Z,9.80
2019-04-28T15:13:55.365Z,8.53
2019-04-28T15:16:22.442Z,8.83
2019-04-28T15:18:49.355Z,7.23
2019-04-28T15:21:16.220Z,8.33
2019-04-28T15:23:43.466Z,8.43
2019-04-28T15:26:10.254Z,8.30
2019-04-28T15:28:38.123Z,10.43
2019-04-28T15:31:05.078Z,8.20
2019-04-28T15:33:32.173Z,10.17
2019-04-28T15:35:59.076Z,9.27
2019-04-28T15:38:26.182Z,7.27
2019-04-28T15:40:53.576Z,7.40
2019-04-28T15:43:20.456Z,7.87
2019-04-28T15:45:59.446Z,9.77
2019-04-28T15:48:27.313Z,8.63
2019-04-28T15:50:54.536Z,9.53
2019-04-28T15:53:24.072Z,8.97
2019-04-28T15:56:10.551Z,8.53
2019-04-28T15:58:38.263Z,8.43
2019-04-28T16:01:05.166Z,8.07
2019-04-28T16:03:32.638Z,8.50
2019-04-28T16:06:00.056Z,9.60
2019-04-28T16:08:33.389Z,8.40
2019-04-28T16:11:01.153Z,8.80
2019-04-28T16:13:28.146Z,7.87
2019-04-28T16:15:58.070Z,7.97
2019-04-28T16:18:25.977Z,7.83
2019-04-28T16:21:00.579Z,8.93
2019-04-28T16:23:34.134Z,9.37
2019-04-28T16:26:00.947Z,8.50
2019-04-28T16:28:29.076Z,6.70
2019-04-28T16:30:55.893Z,8.53
2019-04-28T16:33:36.203Z,8.63
2019-04-28T16:36:08.944Z,7.60
2019-04-28T16:38:41.890Z,10.77
2019-04-28T16:41:30.114Z,10.13
2019-04-28T16:44:26.236Z,7.30
2019-04-28T16:46:53.019Z,8.30
2019-04-28T16:49:21.844Z,10.90
2019-04-28T16:51:48.952Z,8.53
2019-04-28T16:54:15.862Z,8.47
2019-04-28T16:56:53.017Z,7.53
2019-04-28T16:59:39.954Z,7.47
2019-04-28T17:02:27.752Z,6.33
2019-04-28T17:04:55.623Z,11.17
2019-04-28T17:07:28.848Z,9.47
2019-04-28T17:10:01.609Z,8.03
2019-04-28T17:12:32.772Z,8.23
2019-04-28T17:14:59.589Z,12.93
2019-04-28T17:17:26.552Z,8.30
2019-04-28T17:19:53.349Z,9.63
2019-04-28T17:22:20.246Z,7.70
2019-04-28T17:24:47.268Z,10.23
2019-04-28T17:27:13.983Z,8.43
2019-04-28T17:29:41.891Z,8.40
2019-04-28T17:32:09.353Z,9.30
2019-04-28T17:34:36.740Z,7.87
2019-04-28T17:37:04.731Z,8.57
2019-04-28T17:39:32.202Z,10.07
2019-04-28T17:41:59.144Z,9.07
2019-04-28T17:44:32.117Z,8.03
2019-04-28T17:46:59.072Z,7.87
2019-04-28T17:49:33.049Z,8.60
2019-04-28T17:52:03.792Z,10.73
2019-04-28T17:54:31.620Z,9.40
2019-04-28T17:57:00.861Z,9.90
2019-04-28T17:59:28.131Z,8.43
2019-04-28T18:02:24.672Z,10.00
2019-04-28T18:05:13.125Z,9.37
2019-04-28T18:07:40.108Z,11.60
2019-04-28T18:10:08.085Z,10.17
2019-04-28T18:12:35.038Z,10.37
2019-04-28T18:15:15.909Z,9.83
2019-04-28T18:18:12.432Z,11.43
2019-04-28T18:20:39.476Z,15.03
2019-04-28T18:23:06.598Z,10.17
2019-04-28T18:25:33.545Z,10.53
2019-04-28T18:28:00.344Z,9.47
2019-04-28T18:30:32.718Z,11.67
2019-04-28T18:33:28.673Z,11.50
2019-04-28T18:36:01.233Z,8.47
2019-04-28T18:38:35.601Z,10.73
2019-04-28T18:41:13.584Z,9.03
2019-04-28T18:44:06.043Z,9.87
2019-04-28T18:46:32.992Z,8.03
2019-04-28T18:48:59.950Z,7.47
2019-04-28T18:51:30.817Z,7.30
2019-04-28T18:53:58.067Z,7.13
2019-04-28T18:56:24.968Z,10.23
2019-04-28T18:58:51.859Z,9.43
2019-04-28T19:01:44.353Z,9.87
2019-04-28T19:04:12.383Z,15.53
2019-04-28T19:06:45.553Z,14.53
2019-04-28T19:09:22.417Z,12.53
2019-04-28T19:11:54.912Z,13.50
2019-04-28T19:14:32.189Z,12.33
2019-04-28T19:17:33.858Z,12.50
2019-04-28T19:20:00.703Z,11.53
2019-04-28T19:22:27.729Z,11.97
2019-04-28T19:24:54.927Z,11.43
2019-04-28T19:27:22.273Z,14.03
2019-04-28T19:29:50.231Z,11.73
2019-04-28T19:32:17.980Z,10.87
2019-04-28T19:34:44.856Z,10.73
2019-04-28T19:37:12.982Z,10.10
2019-04-28T19:39:42.230Z,9.63
2019-04-28T19:42:11.521Z,12.33
2019-04-28T19:44:38.488Z,11.27
2019-04-28T19:47:07.890Z,11.23
2019-04-28T19:49:41.049Z,12.30
2019-04-28T19:52:09.849Z,10.70
2019-04-28T19:54:39.481Z,11.50
2019-04-28T19:57:16.865Z,10.53
2019-04-28T20:00:02.035Z,11.60
2019-04-28T20:02:31.920Z,14.83
2019-04-28T20:04:58.853Z,12.63
2019-04-28T20:07:28.705Z,10.60
2019-04-28T20:09:58.484Z,11.40
2019-04-28T20:12:25.396Z,12.73
2019-04-28T20:14:55.719Z,10.77
2019-04-28T20:17:22.547Z,11.37
2019-04-28T20:19:52.934Z,12.30
2019-04-28T20:22:19.767Z,11.73
2019-04-28T20:24:47.522Z,12.33
2019-04-28T20:27:14.755Z,14.93
2019-04-28T20:29:42.183Z,13.50
2019-04-28T20:32:14.398Z,13.80
2019-04-28T20:34:49.417Z,12.87
2019-04-28T20:37:32.170Z,14.47
2019-04-28T20:40:06.301Z,11.87
2019-04-28T20:42:39.720Z,11.37
2019-04-28T20:45:07.988Z,13.20
2019-04-28T20:47:43.899Z,11.07
2019-04-28T20:50:10.743Z,11.93
2019-04-28T20:52:37.708Z,12.03
2019-04-28T20:55:06.650Z,12.87
2019-04-28T20:57:35.599Z,12.17
2019-04-28T21:00:02.796Z,13.43
2019-04-28T21:02:29.619Z,11.27
2019-04-28T21:04:56.688Z,11.60
2019-04-28T21:07:23.866Z,14.57
2019-04-28T21:09:51.771Z,11.57
2019-04-28T21:12:18.579Z,12.33
2019-04-28T21:14:45.412Z,10.37
2019-04-28T21:17:12.267Z,15.13
2019-04-28T21:19:39.239Z,9.60
2019-04-28T21:22:07.276Z,11.00
2019-04-28T21:24:34.824Z,10.40
2019-04-28T21:27:01.686Z,10.90
2019-04-28T21:29:28.433Z,11.77
2019-04-28T21:31:57.991Z,10.97
2019-04-28T21:34:27.599Z,11.57
2019-04-28T21:36:54.393Z,10.20
2019-04-28T21:39:31.114Z,11.13
2019-04-28T21:41:59.218Z,9.90
2019-04-28T21:44:33.433Z,10.73
2019-04-28T21:47:06.167Z,9.97
2019-04-28T21:49:35.773Z,9.30
2019-04-28T21:52:02.846Z,10.33
2019-04-28T21:54:29.759Z,12.00
2019-04-28T21:56:56.591Z,12.13
2019-04-28T21:59:23.589Z,9.07
2019-04-28T22:01:52.530Z,11.67
2019-04-28T22:04:21.408Z,9.47
2019-04-28T22:06:48.248Z,8.10
2019-04-28T22:09:15.326Z,11.30
2019-04-28T22:11:44.077Z,11.00
2019-04-28T22:14:11.176Z,9.83
2019-04-28T22:16:38.001Z,9.50
2019-04-28T22:19:04.846Z,11.37
2019-04-28T22:21:31.803Z,11.30
2019-04-28T22:24:12.760Z,9.93
2019-04-28T22:26:43.180Z,12.47
2019-04-28T22:29:13.540Z,11.20
2019-04-28T22:31:40.471Z,10.63
2019-04-28T22:34:08.311Z,8.87
2019-04-28T22:36:35.159Z,9.30
2019-04-28T22:39:04.125Z,7.97
2019-04-28T22:41:31.352Z,8.00
2019-04-28T22:44:02.675Z,10.23
2019-04-28T22:46:29.588Z,8.60
2019-04-28T22:49:01.859Z,10.23
2019-04-28T22:51:31.899Z,7.07
2019-04-28T22:54:07.432Z,8.03
2019-04-28T22:56:39.602Z,9.23
2019-04-28T22:59:27.067Z,7.90
2019-04-28T23:02:05.123Z,8.67
2019-04-28T23:04:35.507Z,9.33
2019-04-28T23:07:11.204Z,8.70
2019-04-28T23:09:38.101Z,8.90
2019-04-28T23:12:07.439Z,10.20
2019-04-28T23:14:34.326Z,11.03
2019-04-28T23:17:01.203Z,7.47
2019-04-28T23:19:58.508Z,7.80
2019-04-28T23:22:46.645Z,9.33
2019-04-28T23:25:07.285Z,9.00
2019-04-28T23:27:34.182Z,11.67
2019-04-28T23:30:01.222Z,10.77
2019-04-28T23:32:28.100Z,8.93
2019-04-28T23:34:58.111Z,8.80
2019-04-28T23:37:25.357Z,10.43
2019-04-28T23:39:52.209Z,10.23
2019-04-28T23:42:38.701Z,10.83
2019-04-28T23:45:05.691Z,9.30
2019-04-28T23:47:32.688Z,10.77
2019-04-28T23:50:04.374Z,10.00
2019-04-28T23:52:58.921Z,13.13
2019-04-28T23:55:26.413Z,13.33
2019-04-28T23:58:36.329Z,10.57
